Windsorville, Connecticut
Current Conditions -  °F | °C
As of 8:21 PM on Tuesday 27 Jan 2015 (Local Time) from KBDL Reporting Station
Light Snow Light Snow  
Wind Chill:   Ceiling: 3000
Heat Index: 15°   Visibility: 3mi
Dew Point:   Wind: 14mph
Humidity: 74%   Direction: 330°NNW
Pressure: 29.72"   Gusts: NA
Location:  41.9042°N, 72.5445°W
Report Text: KBDL 280121Z 33012KT 3SM -SN BKN030 OVC046 M09/M13 A2972 RMK AO2 P0000 T10941133
Loading
Personal Weather Stations






























Interactive Weather Map New forecast layout! Learn more

10-Day Weather Forecast

Advertisements
Track Severe Weather on mobile